createdAt,value
2018-12-25T00:01:54.378Z,4.10
2018-12-25T00:09:03.487Z,4.30
2018-12-25T00:11:32.697Z,4.30
2018-12-25T00:14:06.221Z,3.70
2018-12-25T00:25:23.109Z,4.00
2018-12-25T01:44:41.499Z,4.20
2018-12-25T01:47:33.891Z,4.00
2018-12-25T02:02:02.233Z,4.30
2018-12-25T02:04:31.400Z,4.40
2018-12-25T02:07:11.823Z,4.20
2018-12-25T02:09:52.910Z,4.20
2018-12-25T02:12:44.861Z,4.00
2018-12-25T02:15:20.540Z,4.30
2018-12-25T02:18:03.782Z,4.40
2018-12-25T02:20:37.747Z,4.30
2018-12-25T02:23:09.928Z,4.20
2018-12-25T02:25:48.271Z,4.20
2018-12-25T02:28:19.840Z,4.20
2018-12-25T02:30:55.475Z,4.30
2018-12-25T02:33:31.059Z,4.50
2018-12-25T02:36:06.612Z,4.50
2018-12-25T02:38:43.062Z,4.50
2018-12-25T02:41:18.179Z,4.50
2018-12-25T02:43:50.699Z,4.40
2018-12-25T02:46:44.273Z,4.30
2018-12-25T02:49:27.919Z,4.40
2018-12-25T02:52:19.907Z,4.40
2018-12-25T02:54:56.762Z,4.50
2018-12-25T02:57:30.385Z,4.50
2018-12-25T03:00:07.912Z,4.50
2018-12-25T03:02:41.517Z,4.50
2018-12-25T03:05:23.227Z,4.60
2018-12-25T03:08:00.001Z,4.50
2018-12-25T03:10:32.814Z,4.60
2018-12-25T03:13:04.750Z,4.60
2018-12-25T03:15:37.352Z,4.40
2018-12-25T03:18:11.625Z,4.40
2018-12-25T03:21:06.733Z,4.30
2018-12-25T03:23:48.723Z,4.40
2018-12-25T03:27:03.028Z,4.50
2018-12-25T03:29:34.515Z,4.50
2018-12-25T03:32:05.880Z,4.50
2018-12-25T03:34:45.816Z,4.50
2018-12-25T03:37:25.215Z,4.50
2018-12-25T03:40:04.462Z,4.40
2018-12-25T03:43:12.176Z,4.50
2018-12-25T03:45:47.260Z,4.60
2018-12-25T03:48:24.074Z,4.50
2018-12-25T03:51:02.937Z,4.50
2018-12-25T03:53:42.021Z,4.40
2018-12-25T03:56:14.585Z,4.60
2018-12-25T03:59:07.674Z,4.70
2018-12-25T04:01:42.281Z,4.60
2018-12-25T04:04:31.102Z,4.60
2018-12-25T04:07:11.683Z,4.50
2018-12-25T04:09:55.734Z,4.30
2018-12-25T04:12:26.302Z,4.30
2018-12-25T04:15:01.824Z,4.50
2018-12-25T04:17:38.465Z,4.40
2018-12-25T04:20:19.891Z,4.40
2018-12-25T04:22:52.674Z,4.50
2018-12-25T04:25:44.954Z,4.50
2018-12-25T04:28:21.182Z,4.40
2018-12-25T04:31:04.621Z,4.60
2018-12-25T04:36:42.164Z,4.50
2018-12-25T04:39:18.700Z,4.50
2018-12-25T04:44:57.694Z,4.60
2018-12-25T04:47:29.005Z,4.60
2018-12-25T04:50:15.354Z,4.60
2018-12-25T04:52:50.937Z,4.50
2018-12-25T04:55:21.304Z,4.60
2018-12-25T04:58:12.353Z,4.50
2018-12-25T05:00:43.415Z,4.40
2018-12-25T05:03:28.173Z,4.30
2018-12-25T05:06:08.218Z,4.40
2018-12-25T05:08:41.041Z,4.40
2018-12-25T05:11:12.989Z,4.50
2018-12-25T05:13:44.319Z,4.70
2018-12-25T05:16:37.645Z,4.70
2018-12-25T05:19:26.052Z,4.60
2018-12-25T05:22:49.612Z,4.80
2018-12-25T05:26:05.006Z,4.70
2018-12-25T05:29:05.820Z,4.70
2018-12-25T05:32:24.912Z,4.80
2018-12-25T05:35:48.011Z,4.60
2018-12-25T05:38:39.273Z,4.70
2018-12-25T05:41:10.819Z,4.60
2018-12-25T05:44:02.283Z,4.60
2018-12-25T05:50:17.807Z,4.60
2018-12-25T05:52:53.471Z,4.70
2018-12-25T05:55:30.725Z,4.70
2018-12-25T08:07:14.731Z,5.20
2018-12-25T08:10:46.288Z,5.20
2018-12-25T08:17:27.396Z,5.00
2018-12-25T08:24:11.808Z,5.00
2018-12-25T08:28:17.668Z,5.10
2018-12-25T09:18:54.521Z,5.80
2018-12-25T09:21:51.637Z,5.70
2018-12-25T09:24:40.339Z,5.70
2018-12-25T09:27:55.704Z,5.90
2018-12-25T09:30:57.059Z,6.00
2018-12-25T09:33:30.513Z,6.10
2018-12-25T09:36:10.315Z,6.10
2018-12-25T09:54:03.941Z,6.50
2018-12-25T09:57:12.882Z,6.50
2018-12-25T10:15:26.931Z,6.50
2018-12-25T10:41:52.371Z,7.20
2018-12-25T10:44:43.881Z,7.40
2018-12-25T10:50:34.335Z,8.20
2018-12-25T10:53:15.663Z,8.30
2018-12-25T10:55:47.764Z,8.00
2018-12-25T10:58:46.751Z,8.10
2018-12-25T11:01:28.777Z,8.50
2018-12-25T11:28:01.564Z,8.40
2018-12-25T11:30:24.634Z,8.80
2018-12-25T11:33:05.038Z,9.20
2018-12-25T11:35:46.365Z,9.20
2018-12-25T11:38:18.305Z,9.00
2018-12-25T11:41:08.828Z,9.40
2018-12-25T11:43:43.003Z,9.20
2018-12-25T11:46:21.895Z,9.40
2018-12-25T11:48:51.441Z,9.30
2018-12-25T11:51:21.218Z,9.20
2018-12-25T11:53:50.582Z,8.60
2018-12-25T11:56:24.526Z,8.70
2018-12-25T11:58:53.933Z,8.70
2018-12-25T12:04:47.846Z,9.00
2018-12-25T12:07:17.595Z,8.50
2018-12-25T12:09:55.784Z,8.20
2018-12-25T12:12:29.937Z,7.80
2018-12-25T12:15:04.700Z,7.40
2018-12-25T12:17:46.908Z,7.40
2018-12-25T12:20:26.812Z,7.60
2018-12-25T12:23:04.648Z,7.90
2018-12-25T12:25:33.944Z,8.00
2018-12-25T12:28:03.169Z,7.80
2018-12-25T12:30:32.437Z,7.60
2018-12-25T12:33:01.794Z,7.80
2018-12-25T12:35:30.932Z,7.80
2018-12-25T12:37:59.929Z,8.10
2018-12-25T12:40:29.513Z,7.60
2018-12-25T12:42:58.529Z,7.50
2018-12-25T12:45:27.518Z,7.90
2018-12-25T12:47:58.912Z,7.90
2018-12-25T12:50:28.238Z,8.00
2018-12-25T12:52:57.266Z,8.00
2018-12-25T12:55:26.333Z,8.00
2018-12-25T12:57:55.338Z,7.80
2018-12-25T13:00:24.656Z,8.20
2018-12-25T13:02:56.879Z,8.40
2018-12-25T13:05:27.515Z,8.10
2018-12-25T13:07:56.676Z,8.20
2018-12-25T13:10:31.615Z,8.30
2018-12-25T13:13:18.168Z,8.10
2018-12-25T13:15:55.320Z,8.30
2018-12-25T13:18:27.920Z,8.20
2018-12-25T13:20:57.678Z,8.40
2018-12-25T13:23:27.998Z,8.50
2018-12-25T13:25:57.572Z,8.70
2018-12-25T13:28:27.576Z,8.80
2018-12-25T13:30:56.712Z,8.80
2018-12-25T13:33:25.741Z,8.40
2018-12-25T13:35:54.771Z,8.50
2018-12-25T13:38:24.595Z,8.80
2018-12-25T13:40:53.760Z,8.80
2018-12-25T13:43:23.553Z,8.90
2018-12-25T13:45:52.578Z,9.00
2018-12-25T13:48:22.170Z,9.00
2018-12-25T13:50:52.823Z,9.00
2018-12-25T13:53:23.986Z,9.10
2018-12-25T13:55:54.665Z,9.10
2018-12-25T13:58:24.262Z,9.10
2018-12-25T14:00:53.661Z,8.90
2018-12-25T14:03:22.737Z,9.10
2018-12-25T14:05:51.791Z,9.30
2018-12-25T14:08:21.432Z,9.00
2018-12-25T14:10:50.801Z,9.20
2018-12-25T14:13:20.294Z,8.80
2018-12-25T14:15:49.701Z,8.70
2018-12-25T14:18:18.924Z,8.70
2018-12-25T14:20:48.457Z,8.60
2018-12-25T14:23:17.718Z,8.60
2018-12-25T14:25:46.806Z,8.70
2018-12-25T14:28:15.886Z,8.70
2018-12-25T14:30:44.837Z,8.90
2018-12-25T14:33:13.901Z,8.50
2018-12-25T14:35:42.849Z,8.50
2018-12-25T14:38:12.287Z,8.20
2018-12-25T14:40:41.276Z,7.70
2018-12-25T14:43:10.326Z,7.70
2018-12-25T14:45:40.232Z,7.90
2018-12-25T14:48:09.389Z,7.90
2018-12-25T14:50:39.303Z,7.80
2018-12-25T14:53:09.248Z,8.00
2018-12-25T14:55:39.229Z,8.20
2018-12-25T14:58:09.051Z,8.20
2018-12-25T15:00:38.409Z,8.50
2018-12-25T15:03:07.608Z,8.10
2018-12-25T15:05:37.250Z,8.00
2018-12-25T15:08:06.686Z,7.50
2018-12-25T15:10:36.252Z,7.60
2018-12-25T15:13:06.979Z,7.60
2018-12-25T15:15:37.382Z,8.00
2018-12-25T15:18:06.923Z,7.90
2018-12-25T15:20:36.239Z,8.00
2018-12-25T15:23:06.291Z,8.00
2018-12-25T15:25:36.036Z,8.20
2018-12-25T15:28:06.695Z,8.00
2018-12-25T15:30:36.656Z,7.90
2018-12-25T15:33:06.031Z,8.10
2018-12-25T15:35:36.229Z,8.00
2018-12-25T15:38:06.605Z,7.90
2018-12-25T15:40:38.521Z,8.10
2018-12-25T15:43:07.795Z,7.60
2018-12-25T15:45:37.185Z,7.70
2018-12-25T15:48:06.635Z,8.00
2018-12-25T15:50:35.807Z,7.70
2018-12-25T15:53:05.735Z,7.80
2018-12-25T15:55:35.161Z,7.40
2018-12-25T15:58:05.149Z,7.50
2018-12-25T16:00:34.630Z,7.50
2018-12-25T16:03:04.068Z,7.60
2018-12-25T16:05:33.793Z,7.90
2018-12-25T16:08:04.058Z,8.00
2018-12-25T16:10:33.236Z,7.60
2018-12-25T16:13:02.788Z,7.60
2018-12-25T16:15:32.474Z,7.60
2018-12-25T16:18:02.159Z,7.40
2018-12-25T16:20:32.534Z,7.40
2018-12-25T16:23:03.817Z,7.20
2018-12-25T16:25:33.366Z,7.10
2018-12-25T16:28:03.862Z,7.00
2018-12-25T16:30:33.910Z,7.20
2018-12-25T16:33:03.694Z,7.20
2018-12-25T16:35:33.339Z,7.10
2018-12-25T16:38:03.026Z,6.90
2018-12-25T16:40:32.819Z,6.90
2018-12-25T16:43:03.366Z,6.90
2018-12-25T16:45:33.390Z,7.00
2018-12-25T16:48:03.563Z,7.00
2018-12-25T16:50:33.420Z,6.90
2018-12-25T16:53:03.055Z,7.00
2018-12-25T16:55:34.082Z,6.90
2018-12-25T16:58:03.820Z,7.40
2018-12-25T17:00:33.861Z,7.10
2018-12-25T17:03:03.792Z,7.00
2018-12-25T17:05:34.094Z,6.90
2018-12-25T17:08:04.418Z,7.00
2018-12-25T17:10:35.267Z,7.00
2018-12-25T17:13:05.823Z,7.30
2018-12-25T17:15:36.403Z,7.00
2018-12-25T17:18:07.071Z,7.10
2018-12-25T17:20:37.839Z,7.10
2018-12-25T17:23:08.497Z,7.20
2018-12-25T17:25:39.455Z,7.20
2018-12-25T17:28:09.308Z,7.10
2018-12-25T17:30:39.511Z,6.80
2018-12-25T17:33:10.051Z,6.90
2018-12-25T17:35:40.291Z,6.80
2018-12-25T17:38:11.897Z,6.80
2018-12-25T17:40:44.194Z,6.80
2018-12-25T17:43:15.000Z,6.80
2018-12-25T17:45:45.090Z,6.80
2018-12-25T17:48:15.758Z,6.90
2018-12-25T17:50:49.653Z,6.90
2018-12-25T17:53:20.678Z,7.00
2018-12-25T17:55:52.726Z,7.00
2018-12-25T17:58:25.793Z,7.10
2018-12-25T18:00:58.237Z,7.00
2018-12-25T18:03:29.327Z,7.00
2018-12-25T18:06:00.466Z,7.00
2018-12-25T18:08:31.512Z,6.80
2018-12-25T18:11:03.631Z,6.60
2018-12-25T18:13:34.923Z,6.50
2018-12-25T18:16:06.654Z,6.70
2018-12-25T18:18:37.435Z,6.70
2018-12-25T18:21:11.406Z,6.60
2018-12-25T18:23:45.975Z,6.40
2018-12-25T18:26:19.182Z,6.50
2018-12-25T18:28:56.905Z,6.60
2018-12-25T18:31:29.412Z,6.60
2018-12-25T18:34:02.235Z,6.70
2018-12-25T18:36:34.151Z,6.80
2018-12-25T18:39:06.220Z,6.70
2018-12-25T18:41:37.897Z,6.60
2018-12-25T18:44:09.252Z,6.60
2018-12-25T18:46:39.967Z,6.60
2018-12-25T18:49:12.013Z,6.60
2018-12-25T18:51:43.593Z,6.60
2018-12-25T18:54:15.138Z,6.40
2018-12-25T18:56:46.729Z,6.10
2018-12-25T18:59:18.572Z,6.20
2018-12-25T19:01:49.044Z,6.20
2018-12-25T19:04:21.783Z,6.00
2018-12-25T19:06:54.586Z,6.10
2018-12-25T19:09:30.004Z,6.10
2018-12-25T19:12:02.314Z,6.10
2018-12-25T19:14:34.872Z,5.90
2018-12-25T19:17:08.884Z,5.80
2018-12-25T19:19:44.754Z,5.70
2018-12-25T19:22:16.935Z,5.70
2018-12-25T19:24:47.897Z,5.70
2018-12-25T19:27:20.366Z,5.80
2018-12-25T19:29:54.995Z,5.70
2018-12-25T19:32:28.006Z,5.60
2018-12-25T19:34:58.793Z,5.30
2018-12-25T19:37:31.665Z,5.40
2018-12-25T19:40:04.867Z,5.30
2018-12-25T19:42:36.643Z,5.30
2018-12-25T19:45:08.727Z,5.10
2018-12-25T19:47:40.386Z,5.20
2018-12-25T19:50:11.945Z,5.20
2018-12-25T19:52:43.909Z,5.20
2018-12-25T19:55:14.602Z,5.10
2018-12-25T19:57:45.380Z,5.10
2018-12-25T20:00:17.846Z,5.00
2018-12-25T20:02:56.591Z,5.10
2018-12-25T20:06:03.202Z,5.20
2018-12-25T20:09:26.592Z,5.10
2018-12-25T20:12:42.601Z,5.00
2018-12-25T20:15:40.095Z,4.80
2018-12-25T20:18:59.774Z,4.60
2018-12-25T20:22:02.195Z,4.50
2018-12-25T20:24:56.676Z,4.40
2018-12-25T20:28:14.563Z,4.20
2018-12-25T20:31:30.213Z,4.30
2018-12-25T20:34:52.687Z,4.30
2018-12-25T20:38:20.416Z,4.20
2018-12-25T20:41:37.131Z,4.00
2018-12-25T20:44:50.054Z,3.80
2018-12-25T20:47:59.327Z,3.70
2018-12-25T20:51:07.852Z,3.60
2018-12-25T20:54:34.449Z,3.70
2018-12-25T20:57:49.684Z,3.50
2018-12-25T21:01:01.362Z,3.50
2018-12-25T21:04:12.403Z,3.50
2018-12-25T21:07:33.652Z,3.50
2018-12-25T21:10:48.095Z,3.40
2018-12-25T21:13:49.293Z,3.40
2018-12-25T21:17:18.090Z,3.20
2018-12-25T21:20:31.356Z,3.20
2018-12-25T21:23:36.304Z,3.00
2018-12-25T21:26:41.205Z,2.80
2018-12-25T21:29:11.884Z,3.00
2018-12-25T21:31:41.495Z,2.90
2018-12-25T21:34:11.413Z,2.80
2018-12-25T21:36:46.253Z,2.80
2018-12-25T21:39:16.342Z,2.60
2018-12-25T21:41:46.048Z,2.30
2018-12-25T21:44:15.869Z,2.40
2018-12-25T21:46:45.758Z,2.30
2018-12-25T21:49:15.618Z,2.30
2018-12-25T21:51:46.061Z,2.30
2018-12-25T21:54:17.333Z,2.30
2018-12-25T21:56:47.113Z,2.50
2018-12-25T21:59:18.554Z,2.30
2018-12-25T22:01:47.832Z,2.30
2018-12-25T22:04:17.471Z,2.20
2018-12-25T22:06:47.101Z,2.20
2018-12-25T22:09:16.816Z,2.30
2018-12-25T22:11:46.090Z,2.20
2018-12-25T22:14:15.386Z,2.10
2018-12-25T22:16:44.764Z,2.10
2018-12-25T22:19:14.238Z,2.10
2018-12-25T22:21:43.646Z,2.10
2018-12-25T22:24:13.000Z,2.00
2018-12-25T22:26:42.453Z,2.10
2018-12-25T22:29:11.869Z,2.00
2018-12-25T22:31:41.066Z,2.00
2018-12-25T22:34:10.367Z,2.00
2018-12-25T22:36:39.642Z,2.00
2018-12-25T22:39:08.870Z,1.90
2018-12-25T22:41:38.379Z,2.00
2018-12-25T22:44:07.663Z,1.90
2018-12-25T22:46:36.887Z,2.00
2018-12-25T22:49:07.255Z,1.90
2018-12-25T22:51:36.673Z,1.80
2018-12-25T22:54:06.013Z,1.80
2018-12-25T22:56:35.333Z,1.80
2018-12-25T22:59:10.117Z,1.80
2018-12-25T23:01:39.427Z,1.70
2018-12-25T23:04:08.757Z,1.80
2018-12-25T23:06:38.157Z,1.80
2018-12-25T23:09:07.959Z,1.80
2018-12-25T23:11:37.249Z,1.80
2018-12-25T23:14:06.587Z,1.80
2018-12-25T23:16:35.834Z,1.70
2018-12-25T23:19:05.365Z,1.80
2018-12-25T23:21:34.792Z,1.80
2018-12-25T23:24:04.191Z,1.70
2018-12-25T23:26:33.633Z,1.70
2018-12-25T23:29:03.342Z,1.70
2018-12-25T23:31:32.881Z,1.70
2018-12-25T23:34:02.220Z,1.60
2018-12-25T23:36:31.776Z,1.50
2018-12-25T23:39:01.175Z,1.60
2018-12-25T23:41:30.479Z,1.50
2018-12-25T23:43:59.783Z,1.50
2018-12-25T23:46:29.022Z,1.40
2018-12-25T23:48:58.273Z,1.40
2018-12-25T23:51:27.588Z,1.50
2018-12-25T23:53:56.866Z,1.60
2018-12-25T23:56:26.179Z,1.60
2018-12-25T23:58:56.162Z,1.50
